Time;durP1;ratioP1;P1;durP2;ratioP2;P2;SDS_P1;SDS_P2;PMS_P1;PMS_P2;Temp;Humidity;BMP_temperature;BMP_pressure;BME280_temperature;BME280_humidity;BME280_pressure;Samples;Min_cycle;Max_cycle;Signal;HPM_P1;HPM_P2
2022/01/05 07:07:44;;;;;;;;;;;;;;;6.44;100.00;96831.78;6207975;23;19973;-67
2022/01/05 07:10:12;;;;;;;;;;;;;;;6.25;100.00;96840.63;6217605;23;19944;-68
2022/01/05 07:12:41;;;;;;;;;;;;;;;6.07;100.00;96829.63;6217741;23;19948;-68
2022/01/05 07:15:09;;;;;;;;;;;;;;;5.86;100.00;96830.53;6216912;23;19954;-67
2022/01/05 07:17:37;;;;;;;;;;;;;;;5.64;100.00;96837.31;6215396;23;19949;-68
2022/01/05 07:20:05;;;;;;;;;;;;;;;5.54;100.00;96848.41;6216331;23;20003;-68
2022/01/05 07:22:33;;;;;;;;;;;;;;;5.24;100.00;96874.59;6217388;23;20463;-67
2022/01/05 07:25:00;;;;;;;;;;;;;;;5.04;100.00;96884.50;6217657;23;19954;-67
2022/01/05 07:27:28;;;;;;;;;;;;;;;4.82;100.00;96873.84;6217254;23;20206;-68
2022/01/05 07:29:55;;;;;;;;;;;;;;;4.72;100.00;96878.16;6218687;23;19940;-68
2022/01/05 07:32:22;;;;;;;;;;;;;;;4.62;100.00;96885.25;6217157;23;19951;-68
2022/01/05 07:34:50;;;;;;;;;;;;;;;4.60;100.00;96890.41;6217167;23;20229;-68
2022/01/05 07:37:17;;;;;;;;;;;;;;;4.52;100.00;96880.50;6218112;23;19949;-68
2022/01/05 07:39:45;;;;;;;;;;;;;;;4.44;100.00;96876.16;6191874;23;20321;-68
2022/01/05 07:42:13;;;;;;;;;;;;;;;4.36;100.00;96877.31;6218664;23;19944;-68
2022/01/05 07:44:40;;;;;;;;;;;;;;;4.40;100.00;96860.72;6216850;23;19941;-68
2022/01/05 07:47:08;;;;;;;;;;;;;;;4.37;100.00;96864.28;6217229;23;19949;-68
2022/01/05 07:49:37;;;;;;;;;;;;;;;4.32;100.00;96867.44;6217023;23;19972;-68
2022/01/05 07:52:05;;;;;;;;;;;;;;;4.41;100.00;96865.88;6216629;23;19949;-68
2022/01/05 07:54:32;;;;;;;;;;;;;;;4.35;100.00;96867.41;6217369;23;20224;-68
2022/01/05 07:57:00;;;;;;;;;;;;;;;4.36;100.00;96877.31;6216917;23;20220;-68
2022/01/05 07:59:27;;;;;;;;;;;;;;;4.34;100.00;96885.22;6212936;23;19941;-68
2022/01/05 08:01:54;;;;;;;;;;;;;;;4.34;100.00;96899.06;6214142;23;19942;-68
2022/01/05 08:04:22;;;;;;;;;;;;;;;4.44;100.00;96898.28;6216975;23;19940;-68
2022/01/05 08:06:49;;;;;;;;;;;;;;;4.45;100.00;96894.31;6215972;23;20002;-68
2022/01/05 08:09:17;;;;;;;;;;;;;;;4.48;100.00;96888.00;6216395;23;19940;-68
2022/01/05 08:11:44;;;;;;;;;;;;;;;4.45;100.00;96876.94;6215886;23;19944;-68
2022/01/05 08:14:11;;;;;;;;;;;;;;;4.39;100.00;96865.47;6165575;23;19974;-68
2022/01/05 08:16:39;;;;;;;;;;;;;;;4.32;100.00;96875.72;6216138;23;19944;-68
2022/01/05 08:19:06;;;;;;;;;;;;;;;4.34;100.00;96868.63;6215945;23;19954;-68
2022/01/05 08:21:33;;;;;;;;;;;;;;;4.34;100.00;96848.44;6215961;23;19947;-67
2022/01/05 08:24:01;;;;;;;;;;;;;;;4.40;100.00;96855.97;6217141;23;19938;-68
2022/01/05 08:26:28;;;;;;;;;;;;;;;4.43;100.00;96857.94;6216284;23;19941;-68
2022/01/05 08:28:56;;;;;;;;;;;;;;;4.52;100.00;96858.34;6215353;23;20216;-68
2022/01/05 08:31:23;;;;;;;;;;;;;;;4.47;100.00;96874.56;6217593;23;19956;-68
2022/01/05 08:33:51;;;;;;;;;;;;;;;4.46;100.00;96868.25;6217175;23;20326;-68
2022/01/05 08:36:18;;;;;;;;;;;;;;;4.52;100.00;96876.97;6217932;23;19955;-68
2022/01/05 08:38:46;;;;;;;;;;;;;;;4.47;100.00;96872.63;6216626;23;19942;-68
2022/01/05 08:41:14;;;;;;;;;;;;;;;4.45;100.00;96883.25;6217249;23;19943;-68
2022/01/05 08:43:41;;;;;;;;;;;;;;;4.53;100.00;96867.47;6216130;23;19949;-68
2022/01/05 08:46:08;;;;;;;;;;;;;;;4.57;100.00;96884.88;6217902;23;19974;-68
2022/01/05 08:48:39;;;;;;;;;;;;;;;4.65;100.00;96892.00;6217608;23;20220;-67
2022/01/05 08:51:06;;;;;;;;;;;;;;;4.70;100.00;96885.28;6217107;23;19951;-68
2022/01/05 08:53:35;;;;;;;;;;;;;;;4.71;100.00;96884.91;6216821;23;20303;-68
2022/01/05 08:56:03;;;;;;;;;;;;;;;4.71;100.00;96873.81;6215999;23;20330;-68
2022/01/05 08:58:30;;;;;;;;;;;;;;;4.77;100.00;96882.53;6217570;23;19957;-68
2022/01/05 09:00:58;;;;;;;;;;;;;;;4.72;100.00;96874.63;6215828;23;19957;-68
2022/01/05 09:03:26;;;;;;;;;;;;;;;4.76;100.00;96876.19;6217366;23;19948;-68
2022/01/05 09:05:53;;;;;;;;;;;;;;;4.73;100.00;96879.75;6190227;23;19948;-67
2022/01/05 09:11:37;;;;;;;;;;;;;;;4.83;100.00;96878.97;6203000;23;19977;-68
2022/01/05 09:14:05;;;;;;;;;;;;;;;4.88;100.00;96878.59;6216810;23;19970;-68
2022/01/05 09:16:34;;;;;;;;;;;;;;;4.95;100.00;96894.41;6218504;23;20260;-68
2022/01/05 09:19:03;;;;;;;;;;;;;;;4.91;100.00;96877.00;6218697;23;19944;-68
2022/01/05 09:21:30;;;;;;;;;;;;;;;4.92;100.00;96873.03;6216259;23;20370;-67
2022/01/05 09:23:57;;;;;;;;;;;;;;;4.95;100.00;96866.69;6216657;23;20248;-68
2022/01/05 09:26:25;;;;;;;;;;;;;;;4.99;100.00;96856.44;6217283;23;19941;-68
2022/01/05 09:28:52;;;;;;;;;;;;;;;5.03;100.00;96868.28;6217058;23;19945;-68
2022/01/05 09:31:20;;;;;;;;;;;;;;;4.96;100.00;96882.16;6218460;23;20300;-68
2022/01/05 09:33:47;;;;;;;;;;;;;;;4.97;100.00;96895.59;6217485;23;20136;-68
2022/01/05 09:36:19;;;;;;;;;;;;;;;4.88;100.00;96886.09;6216616;23;20296;-68
2022/01/05 09:44:19;;;;;;;;;;;;;;;4.83;100.00;96875.41;6217983;23;19951;-68
2022/01/05 09:46:47;;;;;;;;;;;;;;;4.91;100.00;96877.00;6213876;23;19947;-68
2022/01/05 09:49:43;;;;;;;;;;;;;;;4.90;100.00;96880.94;6216604;23;19947;-68
2022/01/05 09:52:11;;;;;;;;;;;;;;;4.89;100.00;96874.59;6191713;23;19950;-68
2022/01/05 09:54:42;;;;;;;;;;;;;;;4.88;100.00;96875.81;6217532;23;19962;-68
2022/01/05 09:57:11;;;;;;;;;;;;;;;4.90;100.00;96890.06;6217421;23;20184;-68
2022/01/05 09:59:39;;;;;;;;;;;;;;;4.96;100.00;96894.03;6216988;23;19953;-68
2022/01/05 10:02:07;;;;;;;;;;;;;;;4.97;100.00;96886.47;6215879;23;19949;-68
2022/01/05 10:04:35;;;;;;;;;;;;;;;4.98;100.00;96890.84;6216634;23;19945;-68
2022/01/05 10:07:03;;;;;;;;;;;;;;;4.98;100.00;96891.66;6216343;23;19975;-68
2022/01/05 10:09:31;;;;;;;;;;;;;;;5.03;100.00;96879.38;6216554;23;19952;-68
2022/01/05 10:11:58;;;;;;;;;;;;;;;5.07;100.00;96880.94;6215490;23;19984;-68
2022/01/05 10:14:26;;;;;;;;;;;;;;;5.09;100.00;96884.09;6217561;23;19959;-68
2022/01/05 10:17:06;;;;;;;;;;;;;;;5.06;100.00;96895.97;6216306;23;19957;-68
2022/01/05 10:19:35;;;;;;;;;;;;;;;4.98;100.00;96905.50;6216166;23;20397;-68
2022/01/05 10:22:03;;;;;;;;;;;;;;;5.01;100.00;96903.91;6216468;23;20293;-68
2022/01/05 10:24:44;;;;;;;;;;;;;;;4.99;100.00;96890.44;6217809;23;19943;-68
2022/01/05 10:27:15;;;;;;;;;;;;;;;4.95;100.00;96903.50;6216721;23;19948;-67
2022/01/05 10:29:55;;;;;;;;;;;;;;;4.95;100.00;96903.50;6227320;23;19939;-67
2022/01/05 10:32:24;;;;;;;;;;;;;;;4.96;100.00;96880.19;6216366;23;19971;-68
2022/01/05 10:35:06;;;;;;;;;;;;;;;4.90;100.00;96900.34;6216723;23;19966;-68
2022/01/05 10:37:35;;;;;;;;;;;;;;;4.92;100.00;96871.06;6216079;23;19945;-68
2022/01/05 10:40:22;;;;;;;;;;;;;;;5.03;100.00;96863.56;6216578;23;19946;-68
2022/01/05 10:42:51;;;;;;;;;;;;;;;5.02;100.00;96883.31;6216108;23;19949;-68
2022/01/05 10:45:20;;;;;;;;;;;;;;;5.09;100.00;96866.69;6217027;23;20179;-68
2022/01/05 10:48:02;;;;;;;;;;;;;;;5.13;100.00;96867.50;6216760;23;19951;-68
2022/01/05 10:50:30;;;;;;;;;;;;;;;5.17;100.00;96887.69;6216817;23;19949;-68
2022/01/05 10:52:58;;;;;;;;;;;;;;;5.23;100.00;96875.00;6217103;23;19936;-68
2022/01/05 10:55:27;;;;;;;;;;;;;;;5.20;100.00;96873.84;6217740;23;19965;-68
2022/01/05 10:57:54;;;;;;;;;;;;;;;5.19;100.00;96877.78;6216810;23;20199;-67
2022/01/05 11:00:29;;;;;;;;;;;;;;;5.21;100.00;96877.38;6217712;23;19940;-68
2022/01/05 11:02:57;;;;;;;;;;;;;;;5.27;100.00;96882.13;6217093;23;19951;-67
2022/01/05 11:05:24;;;;;;;;;;;;;;;5.24;100.00;96862.72;6216258;23;19960;-68
2022/01/05 11:08:05;;;;;;;;;;;;;;;5.27;100.00;96873.81;6216752;23;19948;-68
2022/01/05 11:10:32;;;;;;;;;;;;;;;5.31;100.00;96869.06;6216676;23;19950;-67
2022/01/05 11:13:01;;;;;;;;;;;;;;;5.32;100.00;96856.00;6227173;23;20321;-68
2022/01/05 11:15:31;;;;;;;;;;;;;;;5.37;100.00;96850.03;6191852;23;19963;-67
2022/01/05 11:18:15;;;;;;;;;;;;;;;5.45;100.00;96870.22;6189523;23;19951;-68
2022/01/05 11:20:49;;;;;;;;;;;;;;;5.38;100.00;96889.66;6216962;23;19947;-68
2022/01/05 11:23:18;;;;;;;;;;;;;;;5.39;100.00;96880.13;6216395;23;19944;-68
2022/01/05 11:25:46;;;;;;;;;;;;;;;5.41;100.00;96863.88;6216277;23;19952;-68
2022/01/05 11:28:15;;;;;;;;;;;;;;;5.32;100.00;96873.41;6216598;23;19950;-68
2022/01/05 11:30:43;;;;;;;;;;;;;;;5.32;100.00;96880.94;6216762;23;19948;-68
2022/01/05 11:33:10;;;;;;;;;;;;;;;5.29;100.00;96865.09;6216451;23;19947;-68
2022/01/05 11:35:38;;;;;;;;;;;;;;;5.28;100.00;96858.00;6217762;23;20197;-68
2022/01/05 11:38:06;;;;;;;;;;;;;;;5.36;100.00;96842.13;6217294;23;19950;-68
2022/01/05 11:40:36;;;;;;;;;;;;;;;5.30;100.00;96842.53;6216615;23;19944;-68
2022/01/05 11:43:05;;;;;;;;;;;;;;;5.39;100.00;96839.34;6216311;23;19951;-68
2022/01/05 11:45:37;;;;;;;;;;;;;;;5.38;100.00;96839.75;6216021;23;19943;-67
2022/01/05 11:48:20;;;;;;;;;;;;;;;5.29;100.00;96827.09;6226779;23;19951;-67
2022/01/05 11:50:50;;;;;;;;;;;;;;;5.31;100.00;96843.31;6215432;23;19948;-67
2022/01/05 11:53:38;;;;;;;;;;;;;;;5.36;100.00;96833.78;6215985;23;19941;-68
2022/01/05 11:56:16;;;;;;;;;;;;;;;5.39;100.00;96831.03;6215999;23;19965;-67
2022/01/05 11:58:55;;;;;;;;;;;;;;;5.31;100.00;96837.78;6216176;23;19948;-67
2022/01/05 12:01:27;;;;;;;;;;;;;;;5.32;100.00;96848.47;6216419;23;19951;-67
2022/01/05 12:03:58;;;;;;;;;;;;;;;5.31;100.00;96832.22;6216574;23;19941;-67
2022/01/05 12:06:30;;;;;;;;;;;;;;;5.29;100.00;96827.09;6226259;23;19943;-68
2022/01/05 12:09:02;;;;;;;;;;;;;;;5.28;100.00;96835.81;6229129;23;19947;-68
2022/01/05 12:11:31;;;;;;;;;;;;;;;5.28;100.00;96842.13;6224072;23;19968;-68
2022/01/05 12:14:05;;;;;;;;;;;;;;;5.27;100.00;96839.75;6218642;23;20521;-68
2022/01/05 12:16:51;;;;;;;;;;;;;;;5.28;100.00;96841.38;6217025;23;19987;-67
2022/01/05 12:19:20;;;;;;;;;;;;;;;5.30;100.00;96838.97;6218060;23;19944;-67
2022/01/05 12:21:49;;;;;;;;;;;;;;;5.33;100.00;96825.09;6217670;23;19944;-67
2022/01/05 12:24:17;;;;;;;;;;;;;;;5.26;100.00;96825.13;6217962;23;19949;-68
2022/01/05 12:26:44;;;;;;;;;;;;;;;5.28;100.00;96819.19;6219214;23;19943;-68
2022/01/05 12:29:12;;;;;;;;;;;;;;;5.33;100.00;96819.56;6218036;23;19952;-67
2022/01/05 12:31:55;;;;;;;;;;;;;;;5.23;100.00;96823.13;6217882;23;19947;-67
2022/01/05 12:34:41;;;;;;;;;;;;;;;5.28;100.00;96830.28;6217234;23;19951;-67
2022/01/05 12:37:27;;;;;;;;;;;;;;;5.26;100.00;96852.81;6217830;23;20333;-67
2022/01/05 12:39:56;;;;;;;;;;;;;;;5.28;100.00;96841.38;6229311;23;20283;-67
2022/01/05 12:42:23;;;;;;;;;;;;;;;5.30;100.00;96838.97;6216508;23;19952;-68
2022/01/05 12:44:50;;;;;;;;;;;;;;;5.30;100.00;96842.53;6217541;23;19948;-68
2022/01/05 12:47:33;;;;;;;;;;;;;;;5.32;100.00;96833.81;6217634;23;20291;-68
2022/01/05 12:50:16;;;;;;;;;;;;;;;5.36;100.00;96808.84;6217985;23;19961;-67
2022/01/05 12:52:43;;;;;;;;;;;;;;;5.44;100.00;96802.91;6216968;23;19951;-67
2022/01/05 12:55:10;;;;;;;;;;;;;;;5.51;100.00;96822.28;6218050;23;19957;-68
2022/01/05 12:57:39;;;;;;;;;;;;;;;5.55;100.00;96822.28;6219068;23;19949;-68
2022/01/05 13:00:07;;;;;;;;;;;;;;;5.57;100.00;96825.44;6218106;23;19953;-68
2022/01/05 13:02:38;;;;;;;;;;;;;;;5.59;100.00;96814.75;6217827;23;19950;-68
2022/01/05 13:05:08;;;;;;;;;;;;;;;5.62;100.00;96798.09;6217468;23;20202;-68
2022/01/05 13:07:39;;;;;;;;;;;;;;;5.66;100.00;96793.31;6216717;23;19942;-68
2022/01/05 13:10:11;;;;;;;;;;;;;;;5.67;100.00;96803.19;6217018;23;19948;-67
2022/01/05 13:12:39;;;;;;;;;;;;;;;5.66;100.00;96814.72;6218580;23;19979;-67
2022/01/05 13:15:09;;;;;;;;;;;;;;;5.59;100.00;96817.50;6217807;23;19957;-67
2022/01/05 13:17:38;;;;;;;;;;;;;;;5.58;100.00;96808.41;6227784;23;19987;-68
2022/01/05 13:20:11;;;;;;;;;;;;;;;5.59;100.00;96790.59;6218193;23;19951;-68
2022/01/05 13:22:41;;;;;;;;;;;;;;;5.64;100.00;96789.38;6218080;23;19944;-68
2022/01/05 13:25:16;;;;;;;;;;;;;;;5.60;100.00;96796.91;6217643;23;19951;-68
2022/01/05 13:27:47;;;;;;;;;;;;;;;5.57;100.00;96804.06;6218158;23;19945;-67
2022/01/05 13:30:19;;;;;;;;;;;;;;;5.52;100.00;96789.81;6217501;23;19946;-68
2022/01/05 13:32:48;;;;;;;;;;;;;;;5.54;100.00;96801.28;6217421;23;20608;-68
2022/01/05 13:35:18;;;;;;;;;;;;;;;5.53;100.00;96786.63;6217733;23;19944;-67
2022/01/05 13:37:47;;;;;;;;;;;;;;;5.53;100.00;96792.16;6217896;23;19944;-67
2022/01/05 13:40:16;;;;;;;;;;;;;;;5.55;100.00;96791.78;6217720;23;19945;-67
2022/01/05 13:42:44;;;;;;;;;;;;;;;5.54;100.00;96777.13;6217616;23;19951;-67
2022/01/05 13:45:13;;;;;;;;;;;;;;;5.53;100.00;96778.31;6217143;23;19949;-67
2022/01/05 13:47:41;;;;;;;;;;;;;;;5.51;100.00;96772.38;6217419;23;19942;-67
2022/01/05 13:50:11;;;;;;;;;;;;;;;5.49;100.00;96774.78;6217399;23;20212;-68
2022/01/05 13:52:39;;;;;;;;;;;;;;;5.52;100.00;96773.19;6218495;23;19938;-67
2022/01/05 13:55:07;;;;;;;;;;;;;;;5.55;100.00;96777.94;6218777;23;20197;-67
2022/01/05 13:57:35;;;;;;;;;;;;;;;5.56;100.00;96779.50;6217538;23;20462;-67
2022/01/05 14:00:12;;;;;;;;;;;;;;;5.65;100.00;96783.41;6216768;23;19944;-67
2022/01/05 14:02:40;;;;;;;;;;;;;;;5.73;100.00;96790.53;6216033;23;19952;-68
2022/01/05 14:05:08;;;;;;;;;;;;;;;5.77;100.00;96779.41;6217474;23;19941;-67
2022/01/05 14:07:39;;;;;;;;;;;;;;;5.82;100.00;96779.78;6217079;23;20285;-67
2022/01/05 14:10:10;;;;;;;;;;;;;;;5.88;100.00;96786.53;6216363;23;19952;-67
2022/01/05 14:12:40;;;;;;;;;;;;;;;5.92;100.00;96781.72;6216322;23;19971;-67
2022/01/05 14:15:08;;;;;;;;;;;;;;;5.97;100.00;96788.84;6217241;23;19950;-68
2022/01/05 14:17:36;;;;;;;;;;;;;;;6.01;100.00;96784.09;6217043;23;19969;-68
2022/01/05 14:20:13;;;;;;;;;;;;;;;6.06;100.00;96796.75;6216560;23;20296;-68
2022/01/05 14:22:40;;;;;;;;;;;;;;;6.09;100.00;96802.25;6215795;23;19943;-67
2022/01/05 14:25:08;;;;;;;;;;;;;;;6.12;100.00;96807.00;6217690;23;19950;-68
2022/01/05 14:27:37;;;;;;;;;;;;;;;6.14;100.00;96806.63;6217416;23;19948;-67
2022/01/05 14:30:11;;;;;;;;;;;;;;;6.12;100.00;96803.44;6217064;23;19939;-68
2022/01/05 14:32:40;;;;;;;;;;;;;;;6.18;100.00;96810.94;6216711;23;19954;-68
2022/01/05 14:35:11;;;;;;;;;;;;;;;6.18;100.00;96812.94;6216713;23;20290;-68
2022/01/05 14:37:55;;;;;;;;;;;;;;;6.18;100.00;96818.47;6216314;23;19961;-68
2022/01/05 14:40:24;;;;;;;;;;;;;;;6.13;100.00;96810.56;6216081;23;19943;-68
2022/01/05 14:42:53;;;;;;;;;;;;;;;6.13;100.00;96818.91;6215843;23;19944;-68
2022/01/05 14:45:21;;;;;;;;;;;;;;;6.14;100.00;96826.81;6215281;23;19953;-68
2022/01/05 14:47:49;;;;;;;;;;;;;;;6.17;100.00;96822.44;6216071;23;19958;-68
2022/01/05 14:50:17;;;;;;;;;;;;;;;6.18;100.00;96822.03;6215712;23;19948;-68
2022/01/05 14:52:46;;;;;;;;;;;;;;;6.16;100.00;96829.19;6216645;23;19951;-68
2022/01/05 14:55:14;;;;;;;;;;;;;;;6.14;100.00;96824.03;6216822;23;19947;-67
2022/01/05 14:57:41;;;;;;;;;;;;;;;6.07;100.00;96814.94;6216241;23;19981;-68
2022/01/05 15:00:09;;;;;;;;;;;;;;;6.07;100.00;96823.28;6215650;23;19982;-68
2022/01/05 15:02:37;;;;;;;;;;;;;;;6.04;100.00;96819.31;6215597;23;19952;-67
2022/01/05 15:05:04;;;;;;;;;;;;;;;6.01;100.00;96824.91;6216987;23;19951;-68
2022/01/05 15:07:32;;;;;;;;;;;;;;;5.98;100.00;96823.72;6216686;23;19943;-67
2022/01/05 15:10:00;;;;;;;;;;;;;;;5.94;100.00;96815.41;6216382;23;19950;-68
2022/01/05 15:12:27;;;;;;;;;;;;;;;5.94;100.00;96812.63;6217063;23;19992;-68
2022/01/05 15:14:55;;;;;;;;;;;;;;;5.91;100.00;96816.25;6216692;23;19942;-68
2022/01/05 15:17:22;;;;;;;;;;;;;;;5.86;100.00;96813.09;6216494;23;20337;-68
2022/01/05 15:19:49;;;;;;;;;;;;;;;5.75;100.00;96807.53;6216156;23;20333;-68
2022/01/05 15:22:17;;;;;;;;;;;;;;;5.72;100.00;96808.34;6190620;23;19948;-68
2022/01/05 15:24:45;;;;;;;;;;;;;;;5.69;100.00;96808.38;6216483;23;19955;-68
2022/01/05 15:27:15;;;;;;;;;;;;;;;5.67;100.00;96805.22;6216641;23;19944;-68
2022/01/05 15:29:43;;;;;;;;;;;;;;;5.63;100.00;96805.22;6216692;23;20205;-68
2022/01/05 15:32:10;;;;;;;;;;;;;;;5.58;100.00;96808.41;6217421;23;19951;-68
2022/01/05 15:34:38;;;;;;;;;;;;;;;5.58;100.00;96819.50;6216963;23;19948;-68
2022/01/05 15:37:05;;;;;;;;;;;;;;;5.54;100.00;96813.19;6189811;23;19968;-68
2022/01/05 15:39:33;;;;;;;;;;;;;;;5.52;100.00;96817.53;6216217;23;19955;-68
2022/01/05 15:42:00;;;;;;;;;;;;;;;5.51;100.00;96822.28;6215916;23;19953;-67
2022/01/05 15:44:27;;;;;;;;;;;;;;;5.42;100.00;96821.91;6216049;23;19946;-68
2022/01/05 15:46:55;;;;;;;;;;;;;;;5.34;100.00;96820.34;6216590;23;19947;-67
2022/01/05 15:49:23;;;;;;;;;;;;;;;5.39;100.00;96817.16;6216288;23;19942;-68
2022/01/05 15:51:51;;;;;;;;;;;;;;;5.27;100.00;96821.16;6216260;23;20299;-68
2022/01/05 15:54:18;;;;;;;;;;;;;;;5.26;100.00;96829.84;6190927;23;20202;-67
2022/01/05 15:56:58;;;;;;;;;;;;;;;5.24;100.00;96826.69;6216695;23;19966;-68
2022/01/05 16:02:13;;;;;;;;;;;;;;;5.17;100.00;96840.56;6217401;23;19953;-68
2022/01/05 16:04:41;;;;;;;;;;;;;;;5.09;100.00;96847.28;6216999;23;19949;-68
2022/01/05 16:07:09;;;;;;;;;;;;;;;5.06;100.00;96848.88;6216882;23;19948;-68
2022/01/05 16:09:36;;;;;;;;;;;;;;;5.05;100.00;96849.28;6217136;23;19948;-68
2022/01/05 16:12:04;;;;;;;;;;;;;;;5.06;100.00;96843.34;6217253;23;19982;-67
2022/01/05 16:14:31;;;;;;;;;;;;;;;5.01;100.00;96840.97;6217727;23;19950;-68
2022/01/05 16:16:58;;;;;;;;;;;;;;;5.09;100.00;96839.00;6216696;23;19966;-68
2022/01/05 16:19:26;;;;;;;;;;;;;;;5.04;100.00;96833.84;6217012;23;20374;-67
2022/01/05 16:21:54;;;;;;;;;;;;;;;4.97;100.00;96829.09;6217275;23;19951;-68
2022/01/05 16:24:23;;;;;;;;;;;;;;;4.96;100.00;96835.84;6216579;23;19952;-68
2022/01/05 16:26:52;;;;;;;;;;;;;;;4.89;100.00;96832.28;6216775;23;19951;-68
2022/01/05 16:29:20;;;;;;;;;;;;;;;4.95;100.00;96839.00;6217301;23;19949;-68
2022/01/05 16:31:48;;;;;;;;;;;;;;;4.93;100.00;96835.84;6215916;23;19945;-68
2022/01/05 16:34:15;;;;;;;;;;;;;;;4.92;100.00;96832.28;6217613;23;19943;-68
2022/01/05 16:36:43;;;;;;;;;;;;;;;4.98;100.00;96833.47;6217585;23;19945;-68
2022/01/05 16:39:11;;;;;;;;;;;;;;;4.93;100.00;96830.31;6217463;23;20300;-68
2022/01/05 16:41:41;;;;;;;;;;;;;;;4.95;100.00;96833.47;6216703;23;20210;-67
2022/01/05 16:44:09;;;;;;;;;;;;;;;4.86;100.00;96828.34;6216397;23;19955;-66
2022/01/05 16:46:39;;;;;;;;;;;;;;;4.87;100.00;96832.69;6217545;23;19955;-67
2022/01/05 16:49:09;;;;;;;;;;;;;;;4.83;100.00;96823.59;6216721;23;19947;-68
2022/01/05 16:51:37;;;;;;;;;;;;;;;4.76;100.00;96836.63;6217805;23;19954;-67
2022/01/05 16:54:06;;;;;;;;;;;;;;;4.72;100.00;96838.63;6219328;23;19949;-68
2022/01/05 17:02:09;;;;;;;;;;;;;;;4.64;100.00;96840.59;6219333;23;19962;-67
2022/01/05 17:04:42;;;;;;;;;;;;;;;4.58;100.00;96842.97;6218922;23;20010;-67
2022/01/05 17:07:09;;;;;;;;;;;;;;;4.55;100.00;96840.97;6218800;23;20376;-67
2022/01/05 17:09:37;;;;;;;;;;;;;;;4.47;100.00;96833.88;6219399;23;19949;-66
2022/01/05 17:12:05;;;;;;;;;;;;;;;4.53;100.00;96835.03;6219064;23;19996;-67
2022/01/05 17:14:33;;;;;;;;;;;;;;;4.58;100.00;96842.97;6219042;23;19957;-67
2022/01/05 17:17:00;;;;;;;;;;;;;;;4.63;100.00;96834.25;6218664;23;19946;-67
2022/01/05 17:19:29;;;;;;;;;;;;;;;4.68;100.00;96835.03;6217580;23;19946;-68
2022/01/05 17:21:57;;;;;;;;;;;;;;;4.71;100.00;96828.72;6216611;23;19945;-67
2022/01/05 17:24:24;;;;;;;;;;;;;;;4.64;100.00;96838.63;6218416;23;19955;-67
2022/01/05 17:26:51;;;;;;;;;;;;;;;4.67;100.00;96827.94;6220056;23;19935;-67
2022/01/05 17:29:19;;;;;;;;;;;;;;;4.77;100.00;96827.16;6194030;23;19945;-78
2022/01/05 17:31:47;;;;;;;;;;;;;;;4.78;100.00;96837.81;6219397;23;19943;-69
2022/01/05 17:34:14;;;;;;;;;;;;;;;4.88;100.00;96842.56;6217372;23;20327;-69
2022/01/05 17:37:03;;;;;;;;;;;;;;;4.90;100.00;96842.16;6214282;23;19929;31
2022/01/05 17:39:39;;;;;;;;;;;;;;;4.92;100.00;96845.34;6202763;23;19959;31
2022/01/05 17:42:07;;;;;;;;;;;;;;;4.86;100.00;96852.47;6158639;23;19953;-68
2022/01/05 17:44:34;;;;;;;;;;;;;;;4.91;100.00;96849.31;6158202;23;19943;-68
2022/01/05 17:47:03;;;;;;;;;;;;;;;4.93;100.00;96864.34;6157114;23;20214;-69
2022/01/05 17:49:32;;;;;;;;;;;;;;;5.00;100.00;96864.34;6159539;23;19942;-66
2022/01/05 17:52:02;;;;;;;;;;;;;;;4.95;100.00;96872.25;6158343;23;19943;-69
2022/01/05 17:54:31;;;;;;;;;;;;;;;4.93;100.00;96880.16;6159528;23;20286;-69
2022/01/05 17:56:59;;;;;;;;;;;;;;;4.95;100.00;96884.13;6158790;23;20284;-69
2022/01/05 17:59:26;;;;;;;;;;;;;;;5.00;100.00;96875.41;6158775;23;19967;-68
2022/01/05 18:01:53;;;;;;;;;;;;;;;5.08;100.00;96870.66;6159090;23;19945;-70
2022/01/05 18:04:22;;;;;;;;;;;;;;;5.03;100.00;96882.16;6157650;23;20347;-70
2022/01/05 18:06:52;;;;;;;;;;;;;;;5.08;100.00;96876.22;6157778;23;20299;-70
2022/01/05 18:09:19;;;;;;;;;;;;;;;5.00;100.00;96888.47;6159485;23;19945;-71
2022/01/05 18:11:47;;;;;;;;;;;;;;;5.05;100.00;96874.22;6132956;23;19943;-70
2022/01/05 18:14:14;;;;;;;;;;;;;;;4.98;100.00;96877.78;6159061;23;19946;-70
2022/01/05 18:16:46;;;;;;;;;;;;;;;5.05;100.00;96877.00;6159029;23;19952;-71
2022/01/05 18:19:14;;;;;;;;;;;;;;;4.98;100.00;96875.03;6159112;23;19963;-71
2022/01/05 18:21:43;;;;;;;;;;;;;;;4.96;100.00;96884.91;6158981;23;20297;-70
2022/01/05 18:24:11;;;;;;;;;;;;;;;4.93;100.00;96885.69;6158818;23;19945;-70
2022/01/05 18:26:39;;;;;;;;;;;;;;;4.90;100.00;96880.94;6159672;23;20294;-70
2022/01/05 18:29:07;;;;;;;;;;;;;;;4.88;100.00;96881.34;6158571;23;19945;-71
2022/01/05 18:31:34;;;;;;;;;;;;;;;4.86;100.00;96880.16;6158047;23;19956;-79
2022/01/05 18:34:02;;;;;;;;;;;;;;;4.79;100.00;96880.97;6156703;23;20208;-70
2022/01/05 18:36:29;;;;;;;;;;;;;;;4.83;100.00;96880.94;6156968;23;19942;-72
2022/01/05 18:38:58;;;;;;;;;;;;;;;4.83;100.00;96886.47;6155714;23;20250;-73
2022/01/05 18:41:37;;;;;;;;;;;;;;;4.87;100.00;96898.34;6156532;23;20338;-74
2022/01/05 18:44:04;;;;;;;;;;;;;;;4.83;100.00;96897.56;6157922;23;19950;-74
2022/01/05 18:46:31;;;;;;;;;;;;;;;4.82;100.00;96898.75;6158077;23;19939;-73
2022/01/05 18:48:59;;;;;;;;;;;;;;;4.83;100.00;96903.09;6156972;23;19941;-70
2022/01/05 18:51:26;;;;;;;;;;;;;;;4.83;100.00;96911.41;6157205;23;19946;-69
2022/01/05 18:53:54;;;;;;;;;;;;;;;4.81;100.00;96911.81;6156461;23;19949;-69
2022/01/05 18:56:22;;;;;;;;;;;;;;;4.83;100.00;96905.88;6156395;23;19977;-69
2022/01/05 18:58:49;;;;;;;;;;;;;;;4.84;100.00;96904.69;6156954;23;19962;-75
2022/01/05 19:01:21;;;;;;;;;;;;;;;4.84;100.00;96911.00;6158160;23;19946;-74
2022/01/05 19:03:49;;;;;;;;;;;;;;;4.83;100.00;96914.19;6167415;23;20318;-74
2022/01/05 19:06:17;;;;;;;;;;;;;;;4.81;100.00;96900.72;6156686;23;19943;-73
2022/01/05 19:08:44;;;;;;;;;;;;;;;4.82;100.00;96912.59;6158020;23;20290;-75
2022/01/05 19:11:12;;;;;;;;;;;;;;;4.82;100.00;96915.38;6157705;23;19947;-70
2022/01/05 19:13:39;;;;;;;;;;;;;;;4.80;100.00;96914.97;6156741;23;19964;-70
2022/01/05 19:16:06;;;;;;;;;;;;;;;4.83;100.00;96919.72;6155936;23;19946;-70
2022/01/05 19:18:34;;;;;;;;;;;;;;;4.83;100.00;96914.97;6156682;23;19967;-74
2022/01/05 19:21:01;;;;;;;;;;;;;;;4.80;100.00;96928.81;6156789;23;19945;-73
2022/01/05 19:23:29;;;;;;;;;;;;;;;4.74;100.00;96930.38;6156477;23;19956;-74
2022/01/05 19:25:56;;;;;;;;;;;;;;;4.75;100.00;96929.19;6156812;23;19948;-75
2022/01/05 19:28:24;;;;;;;;;;;;;;;4.78;100.00;96936.72;6157232;23;20008;-73
2022/01/05 19:30:53;;;;;;;;;;;;;;;4.76;100.00;96933.56;6155931;23;19953;-73
2022/01/05 19:33:21;;;;;;;;;;;;;;;4.75;100.00;96927.22;6156956;23;19948;-73
2022/01/05 19:35:48;;;;;;;;;;;;;;;4.65;100.00;96926.00;6158362;23;19942;-73
2022/01/05 19:38:16;;;;;;;;;;;;;;;4.61;100.00;96930.75;6156187;23;19970;-72
2022/01/05 19:40:44;;;;;;;;;;;;;;;4.64;100.00;96930.00;6156579;23;19969;-73
2022/01/05 19:43:12;;;;;;;;;;;;;;;4.67;100.00;96927.63;6157620;23;19946;-72
2022/01/05 19:45:39;;;;;;;;;;;;;;;4.67;100.00;96917.31;6156961;23;19945;-72
2022/01/05 19:48:07;;;;;;;;;;;;;;;4.66;100.00;96918.50;6156189;23;19949;-73
2022/01/05 19:50:39;;;;;;;;;;;;;;;4.58;100.00;96917.69;6156522;23;19947;-72
2022/01/05 19:53:17;;;;;;;;;;;;;;;4.59;100.00;96924.84;6156752;23;19944;-72
2022/01/05 19:55:47;;;;;;;;;;;;;;;4.55;100.00;96932.31;6157556;23;19949;-71
2022/01/05 19:58:15;;;;;;;;;;;;;;;4.53;100.00;96933.88;6131551;23;19950;-70
2022/01/05 20:00:43;;;;;;;;;;;;;;;4.48;100.00;96932.31;6156956;23;19943;-71
2022/01/05 20:03:10;;;;;;;;;;;;;;;4.52;100.00;96937.84;6156736;23;19968;-73
2022/01/05 20:05:38;;;;;;;;;;;;;;;4.57;100.00;96940.25;6156950;23;19950;-70
2022/01/05 20:08:06;;;;;;;;;;;;;;;4.57;100.00;96943.00;6155640;23;19981;-69
2022/01/05 20:10:34;;;;;;;;;;;;;;;4.56;100.00;96947.75;6157232;23;19952;-69
2022/01/05 20:13:02;;;;;;;;;;;;;;;4.55;100.00;96950.91;6156411;23;20449;-69
2022/01/05 20:15:30;;;;;;;;;;;;;;;4.54;100.00;96947.34;6156957;23;19940;-71
2022/01/05 20:17:58;;;;;;;;;;;;;;;4.53;100.00;96956.03;6156397;23;19942;-71
2022/01/05 20:20:26;;;;;;;;;;;;;;;4.54;100.00;96960.41;6156192;23;19965;-71
2022/01/05 20:22:53;;;;;;;;;;;;;;;4.57;100.00;96973.47;6156138;23;19951;-70